createdAt,value
2023-04-06T00:00:09.606Z,11.33
2023-04-06T00:02:38.335Z,9.70
2023-04-06T00:05:06.984Z,10.33
2023-04-06T00:07:36.047Z,9.50
2023-04-06T00:10:04.976Z,10.43
2023-04-06T00:12:33.609Z,10.97
2023-04-06T00:15:02.590Z,9.60
2023-04-06T00:17:31.351Z,8.83
2023-04-06T00:20:01.062Z,10.80
2023-04-06T00:22:29.916Z,11.40
2023-04-06T00:24:58.769Z,12.13
2023-04-06T00:27:27.285Z,11.10
2023-04-06T00:29:56.197Z,11.55
2023-04-06T00:32:26.551Z,12.30
2023-04-06T00:34:55.071Z,10.43
2023-04-06T00:37:23.488Z,10.73
2023-04-06T00:39:55.106Z,13.00
2023-04-06T00:42:25.519Z,12.07
2023-04-06T00:44:58.212Z,10.90
2023-04-06T00:47:27.024Z,11.97
2023-04-06T00:49:56.159Z,11.23
2023-04-06T00:52:24.767Z,13.47
2023-04-06T00:54:53.876Z,11.33
2023-04-06T00:57:23.061Z,11.97
2023-04-06T00:59:54.301Z,11.10
2023-04-06T01:02:22.611Z,13.53
2023-04-06T01:04:54.827Z,12.03
2023-04-06T01:07:34.725Z,11.43
2023-04-06T01:10:11.244Z,11.97
2023-04-06T01:12:39.764Z,13.63
2023-04-06T01:15:11.288Z,14.10
2023-04-06T01:20:22.935Z,13.50
2023-04-06T01:22:52.903Z,12.58
2023-04-06T01:25:21.606Z,11.97
2023-04-06T01:27:54.500Z,12.00
2023-04-06T01:30:24.505Z,10.93
2023-04-06T01:32:54.454Z,12.37
2023-04-06T01:35:33.265Z,11.73
2023-04-06T01:38:03.393Z,11.67
2023-04-06T01:40:33.283Z,13.03
2023-04-06T01:43:02.049Z,15.00
2023-04-06T01:45:31.980Z,15.60
2023-04-06T01:48:01.928Z,13.30
2023-04-06T01:50:31.280Z,13.85
2023-04-06T01:53:00.020Z,13.93
2023-04-06T01:55:28.915Z,13.03
2023-04-06T01:57:58.933Z,13.10
2023-04-06T02:00:32.017Z,13.00
2023-04-06T02:03:01.204Z,11.67
2023-04-06T02:05:31.752Z,13.00
2023-04-06T02:08:00.363Z,11.87
2023-04-06T02:10:30.579Z,11.27
2023-04-06T02:13:00.180Z,11.83
2023-04-06T02:15:28.836Z,11.90
2023-04-06T02:17:57.619Z,12.07
2023-04-06T02:20:26.043Z,10.07
2023-04-06T02:22:54.376Z,12.50
2023-04-06T02:25:22.938Z,10.70
2023-04-06T02:27:51.276Z,12.40
2023-04-06T02:30:19.724Z,11.33
2023-04-06T02:32:48.011Z,12.07
2023-04-06T02:35:16.395Z,11.30
2023-04-06T02:37:45.296Z,12.37
2023-04-06T02:40:13.730Z,10.80
2023-04-06T02:42:41.977Z,12.07
2023-04-06T02:45:10.819Z,11.13
2023-04-06T02:47:40.899Z,10.43
2023-04-06T02:50:09.951Z,12.33
2023-04-06T02:52:40.310Z,12.30
2023-04-06T02:55:09.658Z,11.63
2023-04-06T02:57:38.125Z,10.87
2023-04-06T03:00:07.587Z,11.27
2023-04-06T03:02:37.823Z,11.73
2023-04-06T03:05:08.007Z,12.30
2023-04-06T03:07:37.961Z,11.40
2023-04-06T03:10:07.377Z,11.83
2023-04-06T03:12:35.622Z,11.80
2023-04-06T03:15:08.566Z,11.03
2023-04-06T03:17:37.360Z,11.67
2023-04-06T03:20:08.006Z,12.43
2023-04-06T03:22:37.041Z,11.50
2023-04-06T03:25:06.098Z,11.63
2023-04-06T03:27:34.691Z,12.53
2023-04-06T03:30:03.667Z,12.70
2023-04-06T03:32:33.657Z,11.33
2023-04-06T03:35:03.389Z,11.17
2023-04-06T03:37:33.321Z,11.40
2023-04-06T03:40:03.848Z,11.27
2023-04-06T03:42:33.530Z,10.17
2023-04-06T03:45:06.155Z,13.77
2023-04-06T03:47:34.532Z,11.67
2023-04-06T03:50:04.940Z,12.47
2023-04-06T03:52:34.231Z,11.83
2023-04-06T03:55:02.881Z,12.03
2023-04-06T03:57:31.219Z,10.73
2023-04-06T03:59:59.570Z,11.30
2023-04-06T04:02:27.991Z,11.57
2023-04-06T04:04:56.431Z,12.70
2023-04-06T04:07:26.113Z,12.07
2023-04-06T04:09:54.439Z,11.60
2023-04-06T04:12:23.045Z,13.53
2023-04-06T04:14:52.380Z,11.53
2023-04-06T04:17:21.060Z,12.07
2023-04-06T04:19:49.410Z,11.23
2023-04-06T04:22:17.828Z,11.17
2023-04-06T04:24:46.157Z,11.77
2023-04-06T04:27:14.551Z,11.93
2023-04-06T04:29:44.714Z,11.37
2023-04-06T04:32:13.331Z,10.83
2023-04-06T04:34:42.084Z,11.33
2023-04-06T04:37:12.127Z,11.83
2023-04-06T04:39:42.164Z,11.50
2023-04-06T04:42:10.499Z,10.50
2023-04-06T04:44:40.540Z,10.37
2023-04-06T04:47:09.056Z,11.90
2023-04-06T04:49:41.811Z,12.77
2023-04-06T04:52:11.572Z,11.93
2023-04-06T04:54:57.565Z,11.30
2023-04-06T04:57:27.574Z,11.50
2023-04-06T04:59:58.031Z,11.17
2023-04-06T05:02:26.710Z,12.10
2023-04-06T05:04:57.388Z,14.35
2023-04-06T05:07:27.122Z,11.77
2023-04-06T05:09:55.838Z,12.07
2023-04-06T05:12:26.022Z,13.33
2023-04-06T05:14:56.057Z,12.07
2023-04-06T05:17:24.816Z,13.27
2023-04-06T05:19:54.238Z,10.83
2023-04-06T05:22:24.263Z,11.70
2023-04-06T05:24:54.285Z,12.67
2023-04-06T05:27:22.896Z,11.90
2023-04-06T05:29:52.090Z,11.68
2023-04-06T05:32:25.661Z,11.93
2023-04-06T05:34:57.049Z,13.22
2023-04-06T05:39:53.342Z,13.43
2023-04-06T05:42:22.657Z,12.70
2023-04-06T05:44:57.582Z,13.20
2023-04-06T05:47:27.568Z,11.83
2023-04-06T05:49:58.121Z,14.00
2023-04-06T05:52:34.864Z,13.90
2023-04-06T05:55:07.984Z,15.53
2023-04-06T05:57:37.272Z,14.33
2023-04-06T06:00:13.009Z,14.57
2023-04-06T06:02:43.410Z,12.93
2023-04-06T06:05:15.871Z,14.00
2023-04-06T06:07:44.920Z,12.87
2023-04-06T06:10:14.459Z,14.80
2023-04-06T06:12:43.094Z,14.30
2023-04-06T06:15:12.002Z,14.63
2023-04-06T06:17:42.014Z,12.93
2023-04-06T06:20:10.897Z,13.70
2023-04-06T06:22:41.128Z,13.55
2023-04-06T06:25:11.404Z,12.37
2023-04-06T06:27:41.244Z,14.23
2023-04-06T06:30:09.920Z,13.87
2023-04-06T06:32:39.943Z,14.27
2023-04-06T06:35:08.456Z,13.87
2023-04-06T06:37:43.178Z,13.18
2023-04-06T06:40:15.205Z,11.67
2023-04-06T06:42:44.194Z,12.58
2023-04-06T06:45:22.417Z,13.63
2023-04-06T06:47:54.355Z,12.30
2023-04-06T06:50:21.419Z,13.97
2023-04-06T06:52:50.825Z,12.47
2023-04-06T06:55:20.278Z,13.80
2023-04-06T06:57:49.257Z,12.63
2023-04-06T07:00:21.913Z,13.50
2023-04-06T07:02:51.729Z,12.80
2023-04-06T07:05:28.084Z,13.23
2023-04-06T07:07:51.469Z,12.80
2023-04-06T07:10:20.478Z,13.37
2023-04-06T07:12:49.260Z,13.07
2023-04-06T07:15:18.594Z,14.30
2023-04-06T07:17:48.851Z,13.70
2023-04-06T07:20:17.598Z,12.60
2023-04-06T07:22:46.413Z,11.63
2023-04-06T07:25:14.978Z,11.60
2023-04-06T07:27:43.632Z,11.20
2023-04-06T07:30:13.486Z,13.03
2023-04-06T07:32:43.177Z,11.23
2023-04-06T07:35:11.860Z,11.87
2023-04-06T07:37:40.924Z,10.90
2023-04-06T07:40:09.739Z,11.25
2023-04-06T07:42:39.904Z,12.43
2023-04-06T07:45:09.158Z,10.98
2023-04-06T07:47:37.828Z,10.60
2023-04-06T07:50:06.805Z,10.60
2023-04-06T07:52:38.201Z,10.80
2023-04-06T07:55:06.071Z,9.83
2023-04-06T07:57:36.013Z,9.50
2023-04-06T08:00:05.903Z,9.67
2023-04-06T08:02:37.291Z,9.90
2023-04-06T08:08:22.242Z,9.93
2023-04-06T08:10:51.162Z,11.15
2023-04-06T08:13:19.403Z,8.63
2023-04-06T08:15:48.384Z,9.43
2023-04-06T08:18:16.994Z,10.13
2023-04-06T08:20:45.614Z,9.37
2023-04-06T08:23:17.882Z,9.90
2023-04-06T08:25:47.712Z,9.90
2023-04-06T08:28:16.777Z,8.93
2023-04-06T08:30:45.339Z,9.43
2023-04-06T08:38:58.492Z,6.20
2023-04-06T08:41:27.131Z,8.23
2023-04-06T08:43:59.828Z,7.28
2023-04-06T08:46:32.917Z,6.43
2023-04-06T08:49:02.519Z,5.77
2023-04-06T08:51:31.598Z,5.70
2023-04-06T08:54:00.865Z,5.33
2023-04-06T08:56:29.858Z,3.50
2023-04-06T08:59:00.441Z,4.77
2023-04-06T09:01:29.817Z,4.33
2023-04-06T09:04:02.124Z,4.37
2023-04-06T09:06:31.828Z,4.97
2023-04-06T09:09:00.648Z,3.93
2023-04-06T09:11:29.537Z,4.22
2023-04-06T09:14:08.088Z,3.03
2023-04-06T09:16:44.510Z,3.87
2023-04-06T09:19:14.062Z,4.67
2023-04-06T09:21:43.661Z,4.47
2023-04-06T09:24:13.243Z,4.00
2023-04-06T09:26:50.109Z,3.10
2023-04-06T09:29:27.475Z,3.33
2023-04-06T09:32:05.341Z,3.62
2023-04-06T09:34:36.171Z,3.50
2023-04-06T09:37:18.772Z,3.72
2023-04-06T09:39:48.401Z,3.60
2023-04-06T09:42:28.011Z,3.97
2023-04-06T09:45:08.339Z,3.77
2023-04-06T09:47:48.468Z,3.97
2023-04-06T09:50:17.317Z,3.90
2023-04-06T09:52:50.867Z,3.53
2023-04-06T09:55:26.321Z,4.17
2023-04-06T09:57:56.933Z,4.37
2023-04-06T10:00:27.146Z,3.27
2023-04-06T10:03:00.634Z,3.33
2023-04-06T10:05:45.915Z,3.37
2023-04-06T10:08:15.247Z,3.77
2023-04-06T10:10:44.399Z,3.00
2023-04-06T10:13:13.198Z,3.27
2023-04-06T10:15:41.770Z,3.10
2023-04-06T10:18:10.567Z,3.60
2023-04-06T10:20:49.830Z,4.03
2023-04-06T10:23:21.110Z,2.83
2023-04-06T10:25:59.485Z,2.08
2023-04-06T10:28:29.680Z,3.57
2023-04-06T10:30:58.989Z,2.77
2023-04-06T10:33:27.764Z,2.00
2023-04-06T10:35:56.865Z,2.12
2023-04-06T10:38:38.925Z,2.03
2023-04-06T10:41:07.154Z,2.00
2023-04-06T10:43:37.344Z,2.60
2023-04-06T10:46:07.003Z,2.27
2023-04-06T10:48:40.441Z,2.33
2023-04-06T10:51:10.303Z,1.60
2023-04-06T10:53:38.852Z,2.20
2023-04-06T10:56:08.556Z,1.67
2023-04-06T10:58:37.291Z,2.50
2023-04-06T11:01:06.185Z,1.93
2023-04-06T11:03:36.289Z,2.23
2023-04-06T11:06:04.845Z,2.23
2023-04-06T11:08:33.896Z,2.93
2023-04-06T11:11:09.402Z,2.92
2023-04-06T11:13:38.770Z,2.73
2023-04-06T11:16:07.612Z,2.35
2023-04-06T11:18:36.682Z,2.70
2023-04-06T11:21:05.366Z,3.10
2023-04-06T11:23:33.796Z,3.17
2023-04-06T11:26:03.462Z,1.95
2023-04-06T11:28:31.989Z,2.83
2023-04-06T11:31:01.944Z,2.80
2023-04-06T11:33:31.325Z,2.40
2023-04-06T11:35:59.830Z,2.63
2023-04-06T11:38:28.375Z,3.20
2023-04-06T11:40:56.834Z,3.47
2023-04-06T11:43:29.502Z,2.40
2023-04-06T11:46:02.965Z,2.57
2023-04-06T11:48:32.285Z,2.50
2023-04-06T11:51:02.083Z,2.57
2023-04-06T11:53:30.750Z,1.90
2023-04-06T11:56:00.560Z,2.67
2023-04-06T11:58:29.184Z,1.80
2023-04-06T12:00:59.611Z,2.83
2023-04-06T12:03:28.337Z,2.43
2023-04-06T12:05:58.765Z,2.97
2023-04-06T12:08:27.000Z,2.70
2023-04-06T12:10:55.576Z,2.60
2023-04-06T12:13:23.811Z,2.10
2023-04-06T12:15:52.456Z,2.83
2023-04-06T12:18:20.986Z,2.67
2023-04-06T12:20:49.705Z,2.53
2023-04-06T12:23:18.190Z,3.43
2023-04-06T12:25:47.232Z,3.13
2023-04-06T12:28:16.372Z,2.67
2023-04-06T12:30:44.902Z,2.43
2023-04-06T12:33:13.528Z,3.47
2023-04-06T12:35:42.440Z,3.08
2023-04-06T12:38:11.124Z,3.00
2023-04-06T12:40:40.750Z,3.10
2023-04-06T12:43:09.890Z,2.73
2023-04-06T12:45:38.448Z,2.20
2023-04-06T12:48:06.892Z,3.10
2023-04-06T12:50:35.486Z,2.80
2023-04-06T12:53:04.799Z,3.55
2023-04-06T12:55:35.137Z,3.10
2023-04-06T12:58:03.931Z,3.10
2023-04-06T13:00:32.919Z,2.30
2023-04-06T13:03:01.657Z,3.17
2023-04-06T13:05:31.251Z,2.90
2023-04-06T13:08:00.581Z,3.17
2023-04-06T13:10:29.355Z,2.80
2023-04-06T13:12:58.257Z,2.80
2023-04-06T13:15:26.841Z,3.10
2023-04-06T13:17:56.542Z,3.13
2023-04-06T13:20:25.987Z,2.33
2023-04-06T13:22:54.486Z,2.73
2023-04-06T13:25:22.858Z,2.23
2023-04-06T13:27:51.424Z,3.20
2023-04-06T13:30:19.840Z,3.23
2023-04-06T13:32:48.510Z,3.07
2023-04-06T13:35:17.599Z,3.63
2023-04-06T13:37:46.081Z,3.40
2023-04-06T13:40:14.476Z,2.80
2023-04-06T13:42:44.883Z,2.97
2023-04-06T13:45:13.148Z,3.40
2023-04-06T13:47:42.313Z,2.90
2023-04-06T13:50:11.310Z,2.77
2023-04-06T13:52:39.809Z,3.37
2023-04-06T13:55:08.840Z,2.73
2023-04-06T13:57:38.656Z,2.90
2023-04-06T14:00:08.280Z,2.43
2023-04-06T14:02:37.065Z,3.43
2023-04-06T14:05:05.533Z,2.57
2023-04-06T14:07:34.029Z,2.90
2023-04-06T14:10:03.820Z,3.40
2023-04-06T14:12:32.673Z,3.27
2023-04-06T14:15:01.309Z,3.00
2023-04-06T14:17:29.933Z,2.87
2023-04-06T14:19:58.387Z,2.63
2023-04-06T14:22:27.065Z,2.87
2023-04-06T14:24:56.626Z,2.47
2023-04-06T14:27:26.333Z,3.08
2023-04-06T14:29:55.780Z,3.00
2023-04-06T14:32:25.487Z,3.85
2023-04-06T14:34:54.019Z,3.00
2023-04-06T14:37:23.073Z,3.08
2023-04-06T14:39:51.963Z,2.75
2023-04-06T14:42:20.656Z,2.60
2023-04-06T14:44:49.643Z,2.60
2023-04-06T14:47:19.739Z,3.60
2023-04-06T14:49:49.210Z,3.70
2023-04-06T14:52:17.426Z,2.97
2023-04-06T14:54:45.979Z,3.57
2023-04-06T14:57:14.654Z,3.57
2023-04-06T14:59:43.288Z,3.47
2023-04-06T15:02:11.610Z,3.07
2023-04-06T15:04:41.324Z,3.60
2023-04-06T15:07:09.513Z,3.30
2023-04-06T15:09:38.283Z,2.43
2023-04-06T15:12:06.878Z,3.50
2023-04-06T15:14:35.451Z,3.10
2023-04-06T15:17:04.714Z,2.70
2023-04-06T15:19:33.515Z,2.87
2023-04-06T15:22:02.531Z,3.10
2023-04-06T15:24:31.522Z,3.42
2023-04-06T15:27:00.726Z,2.42
2023-04-06T15:29:29.307Z,2.77
2023-04-06T15:31:58.133Z,3.40
2023-04-06T15:34:28.620Z,2.47
2023-04-06T15:36:58.746Z,2.17
2023-04-06T15:39:29.127Z,2.62
2023-04-06T15:41:58.274Z,3.10
2023-04-06T15:44:27.160Z,2.47
2023-04-06T15:46:56.758Z,2.72
2023-04-06T15:49:25.237Z,3.03
2023-04-06T15:51:53.783Z,3.37
2023-04-06T15:54:22.312Z,2.53
2023-04-06T15:56:51.348Z,2.40
2023-04-06T15:59:19.810Z,2.10
2023-04-06T16:01:48.377Z,3.20
2023-04-06T16:04:16.751Z,2.63
2023-04-06T16:06:45.272Z,3.13
2023-04-06T16:09:13.639Z,2.90
2023-04-06T16:11:42.133Z,2.83
2023-04-06T16:14:10.721Z,3.33
2023-04-06T16:16:39.709Z,3.20
2023-04-06T16:19:08.244Z,2.90
2023-04-06T16:21:36.731Z,2.70
2023-04-06T16:24:06.543Z,2.30
2023-04-06T16:26:36.750Z,3.08
2023-04-06T16:29:05.449Z,2.83
2023-04-06T16:31:34.415Z,3.17
2023-04-06T16:34:03.165Z,2.92
2023-04-06T16:36:33.536Z,2.67
2023-04-06T16:39:02.257Z,2.57
2023-04-06T16:41:32.403Z,2.90
2023-04-06T16:44:00.600Z,3.37
2023-04-06T16:46:38.134Z,2.70
2023-04-06T16:49:07.000Z,2.97
2023-04-06T16:51:36.768Z,3.43
2023-04-06T16:54:05.570Z,3.57
2023-04-06T16:56:34.426Z,3.45
2023-04-06T16:59:03.346Z,4.37
2023-04-06T17:01:31.924Z,3.57
2023-04-06T17:04:01.735Z,5.53
2023-04-06T17:06:31.120Z,3.63
2023-04-06T17:08:59.730Z,3.10
2023-04-06T17:11:36.095Z,2.97
2023-04-06T17:13:58.747Z,2.93
2023-04-06T17:16:29.004Z,2.60
2023-04-06T17:18:57.763Z,3.13
2023-04-06T17:21:26.373Z,3.60
2023-04-06T17:23:55.071Z,4.00
2023-04-06T17:26:23.276Z,3.87
2023-04-06T17:28:51.749Z,3.40
2023-04-06T17:31:20.369Z,2.70
2023-04-06T17:33:49.626Z,2.70
2023-04-06T17:36:19.278Z,2.97
2023-04-06T17:38:48.748Z,2.70
2023-04-06T17:41:17.288Z,3.07
2023-04-06T17:43:46.501Z,4.13
2023-04-06T17:46:15.592Z,3.50
2023-04-06T17:48:46.146Z,3.87
2023-04-06T17:51:18.296Z,3.57
2023-04-06T17:53:47.296Z,4.00
2023-04-06T17:56:15.810Z,3.90
2023-04-06T17:58:45.410Z,6.33
2023-04-06T18:01:14.561Z,7.57
2023-04-06T18:03:43.097Z,5.63
2023-04-06T18:06:15.669Z,6.67
2023-04-06T18:08:44.197Z,6.67
2023-04-06T18:11:20.870Z,7.27
2023-04-06T18:13:49.528Z,6.00
2023-04-06T18:16:20.159Z,5.53
2023-04-06T18:18:49.016Z,5.92
2023-04-06T18:21:19.305Z,5.40
2023-04-06T18:23:47.902Z,6.00
2023-04-06T18:26:18.285Z,4.90
2023-04-06T18:28:46.963Z,4.87
2023-04-06T18:31:15.522Z,4.93
2023-04-06T18:33:44.837Z,3.62
2023-04-06T18:36:14.208Z,6.03
2023-04-06T18:38:43.541Z,5.37
2023-04-06T18:41:12.125Z,6.30
2023-04-06T18:43:41.241Z,8.23
2023-04-06T18:46:13.327Z,7.70
2023-04-06T18:48:42.417Z,9.17
2023-04-06T18:51:10.994Z,8.00
2023-04-06T18:53:40.053Z,8.30
2023-04-06T18:56:15.916Z,5.87
2023-04-06T18:58:44.662Z,5.60
2023-04-06T19:01:14.416Z,4.83
2023-04-06T19:03:43.459Z,5.87
2023-04-06T19:06:11.996Z,5.10
2023-04-06T19:08:40.877Z,6.72
2023-04-06T19:11:10.174Z,7.90
2023-04-06T19:13:38.964Z,8.63
2023-04-06T19:16:10.770Z,8.20
2023-04-06T19:18:41.230Z,5.90
2023-04-06T19:21:19.282Z,6.00
2023-04-06T19:23:49.652Z,5.13
2023-04-06T19:26:18.586Z,5.60
2023-04-06T19:28:47.669Z,5.77
2023-04-06T19:31:17.683Z,6.67
2023-04-06T19:33:47.160Z,9.65
2023-04-06T19:36:16.038Z,15.00
2023-04-06T19:38:44.673Z,12.70
2023-04-06T19:41:12.881Z,13.60
2023-04-06T19:43:41.387Z,20.53
2023-04-06T19:46:11.417Z,16.60
2023-04-06T19:48:40.058Z,12.13
2023-04-06T19:51:08.864Z,9.30
2023-04-06T19:53:37.590Z,7.93
2023-04-06T19:56:06.078Z,8.10
2023-04-06T19:58:34.688Z,7.23
2023-04-06T20:01:04.175Z,6.57
2023-04-06T20:03:33.264Z,6.70
2023-04-06T20:06:02.193Z,5.93
2023-04-06T20:08:30.750Z,6.33
2023-04-06T20:11:07.410Z,6.23
2023-04-06T20:13:36.548Z,6.33
2023-04-06T20:16:05.178Z,6.13
2023-04-06T20:18:33.780Z,6.70
2023-04-06T20:21:03.153Z,6.17
2023-04-06T20:23:33.305Z,6.97
2023-04-06T20:26:02.115Z,6.67
2023-04-06T20:28:31.404Z,7.53
2023-04-06T20:31:00.682Z,8.10
2023-04-06T20:33:29.225Z,6.90
2023-04-06T20:36:01.920Z,5.70
2023-04-06T20:38:33.802Z,7.17
2023-04-06T20:41:01.818Z,7.70
2023-04-06T20:43:31.749Z,8.03
2023-04-06T20:46:02.154Z,8.20
2023-04-06T20:48:33.390Z,6.80
2023-04-06T20:51:01.759Z,6.33
2023-04-06T20:53:31.549Z,5.87
2023-04-06T20:56:01.728Z,6.40
2023-04-06T20:58:29.985Z,5.80
2023-04-06T21:00:58.671Z,5.30
2023-04-06T21:03:27.328Z,7.37
2023-04-06T21:05:59.220Z,5.73
2023-04-06T21:08:27.928Z,5.97
2023-04-06T21:10:56.430Z,6.33
2023-04-06T21:13:25.048Z,5.90
2023-04-06T21:15:54.541Z,4.93
2023-04-06T21:18:22.997Z,5.47
2023-04-06T21:20:51.563Z,5.70
2023-04-06T21:23:20.234Z,5.90
2023-04-06T21:25:50.442Z,6.20
2023-04-06T21:28:19.256Z,6.77
2023-04-06T21:30:47.766Z,6.53
2023-04-06T21:33:16.252Z,6.97
2023-04-06T21:35:44.836Z,8.13
2023-04-06T21:38:13.248Z,6.70
2023-04-06T21:40:42.157Z,7.00
2023-04-06T21:43:11.013Z,6.07
2023-04-06T21:45:40.141Z,6.33
2023-04-06T21:48:08.791Z,9.70
2023-04-06T21:50:38.937Z,10.13
2023-04-06T21:53:07.367Z,7.90
2023-04-06T21:55:35.886Z,5.87
2023-04-06T21:58:05.845Z,6.30
2023-04-06T22:00:34.395Z,5.30
2023-04-06T22:03:03.194Z,9.90
2023-04-06T22:05:32.191Z,8.88
2023-04-06T22:08:05.350Z,8.08
2023-04-06T22:10:33.826Z,7.17
2023-04-06T22:13:02.701Z,6.67
2023-04-06T22:15:31.352Z,6.17
2023-04-06T22:18:01.066Z,6.47
2023-04-06T22:20:29.623Z,7.33
2023-04-06T22:22:58.515Z,7.70
2023-04-06T22:25:27.015Z,7.67
2023-04-06T22:27:55.813Z,6.90
2023-04-06T22:30:24.328Z,7.37
2023-04-06T22:32:53.151Z,6.87
2023-04-06T22:35:22.053Z,6.53
2023-04-06T22:37:50.882Z,6.37
2023-04-06T22:40:19.421Z,5.72
2023-04-06T22:42:47.956Z,5.40
2023-04-06T22:45:16.468Z,5.97
2023-04-06T22:47:45.003Z,6.27
2023-04-06T22:50:13.618Z,6.27
2023-04-06T22:52:42.142Z,5.83
2023-04-06T22:55:10.680Z,5.92
2023-04-06T22:57:39.188Z,5.77
2023-04-06T23:00:08.093Z,6.83
2023-04-06T23:02:36.729Z,7.00
2023-04-06T23:05:05.703Z,6.50
2023-04-06T23:07:35.419Z,6.40
2023-04-06T23:10:04.486Z,6.90
2023-04-06T23:12:32.978Z,6.53
2023-04-06T23:15:01.550Z,6.80
2023-04-06T23:17:30.525Z,7.55
2023-04-06T23:19:59.240Z,6.20
2023-04-06T23:22:28.085Z,7.20
2023-04-06T23:24:56.881Z,7.87
2023-04-06T23:27:25.433Z,7.67
2023-04-06T23:29:54.394Z,7.05
2023-04-06T23:32:22.724Z,7.43
2023-04-06T23:34:51.347Z,7.57
2023-04-06T23:37:19.697Z,7.50
2023-04-06T23:39:48.451Z,7.17
2023-04-06T23:42:17.086Z,8.67
2023-04-06T23:44:45.723Z,8.43
2023-04-06T23:47:14.575Z,8.13
2023-04-06T23:49:43.103Z,7.90
2023-04-06T23:52:11.338Z,7.30
2023-04-06T23:54:39.942Z,7.20
2023-04-06T23:57:08.210Z,6.83
2023-04-06T23:59:36.688Z,6.93
